• Join FlightAware (Why Join?)
  • Login
  • US Flag 
11:11PM EST


 

Airport Tracker/Info


-or-


 

Live Flight TrackerFlight Track Log ✈ CHQ6163 ✈ 28-Jul-2013 ✈ KROA - KDTW

Flight Track Log - Related Links

Times and Time Zones

All times are in EDT time to prevent confusion due to time zone crossing. See the CHQ6163 flight status page for this flight to view local times or setup timezone preferences in your user account.

Time Position Orientation Groundspeed Altitude Reporting Facility
EDT Latitude Longitude Course Direction KTS MPH feet Rate Location/Type
06:27AM 37.3122 -79.9986 296° West 157 181 2,100  Level Indianapolis Center
06:28AM 37.2789 -80.0406 225° Southwest 172 198 4,200 1,980 Climbing Indianapolis Center
06:29AM 37.2714 -80.0836 258° West 198 228 5,400 1,980 Climbing Washington Center
06:30AM 37.4549 -80.3146 293° West  Level FlightAware Approximate
06:30AM 37.3064 -80.1508 303° West 198 228 7,400  Level Washington Center
06:31AM 37.4986 -80.4336 300° West  Level FlightAware Approximate
06:31AM 37.3511 -80.2347 304° West 240 276 9,800  Level Washington Center
06:32AM 37.5505 -80.5476 300° West  Level FlightAware Approximate
06:32AM 37.3917 -80.3181 302° West 266 306 11,500  Level Washington Center
06:33AM 37.5972 -80.6625 296° West  Level FlightAware Approximate
06:33AM 37.4358 -80.4150 300° West 294 338 12,800  Level Washington Center
06:34AM 37.4842 -80.5122 302° West 314 361 14,800 1,620 Climbing Washington Center
06:35AM 37.5264 -80.6014 301° West 333 383 16,200 1,440 Climbing Washington Center
06:36AM 37.6064 -80.7553 303° West 339 390 18,400 1,440 Climbing Indianapolis Center
06:37AM 37.6533 -80.8544 301° West 339 390 19,800 1,320 Climbing Indianapolis Center
06:38AM 37.7025 -80.9569 301° West 349 402 21,100 1,260 Climbing Indianapolis Center
06:39AM 37.7525 -81.0597 302° West 352 405 22,400 1,140 Climbing Indianapolis Center
06:40AM 37.8228 -81.1433 317° Northwest 381 438 23,500 1,020 Climbing Indianapolis Center
06:41AM 37.9286 -81.1797 345° North 404 465 24,500 960 Climbing Indianapolis Center
06:42AM 38.0394 -81.2197 344° North 412 474 25,500 1,140 Climbing Indianapolis Center
06:43AM 38.1728 -81.2703 343° North 416 479 26,800 1,080 Climbing Indianapolis Center
06:44AM 38.2864 -81.3122 344° North 423 487 27,700 540 Climbing Indianapolis Center
06:45AM 38.4017 -81.3561 343° North 431 496 28,000 120 Climbing Indianapolis Center
06:46AM 38.5231 -81.4019 344° North 450 518 28,000  Level Indianapolis Center
06:47AM 38.6472 -81.4481 344° North 464 534 28,000  Level Indianapolis Center
06:48AM 38.7700 -81.4992 342° North 463 533 28,000  Level Indianapolis Center
06:49AM 38.8856 -81.5408 344° North 469 540 28,000  Level Indianapolis Center
06:50AM 39.0072 -81.5881 343° North 460 529 28,000  Level Indianapolis Center
06:51AM 39.1319 -81.6361 343° North 466 536 28,000  Level Indianapolis Center
06:52AM 39.2547 -81.6833 343° North 462 532 28,000  Level Indianapolis Center
06:53AM 39.3781 -81.7300 344° North 461 531 28,000  Level Indianapolis Center
06:54AM 39.5014 -81.7797 343° North 463 533 28,000  Level Indianapolis Center
06:55AM 39.6222 -81.8269 343° North 457 526 28,000  Level Indianapolis Center
06:56AM 39.7544 -81.8719 345° North 460 529 28,000  Level Indianapolis Center
06:57AM 39.8900 -81.8939 353° North 480 552 28,000  Level Indianapolis Center
06:58AM 40.0225 -81.9181 352° North 480 552 28,000  Level Indianapolis Center
06:59AM 40.1533 -81.9406 353° North 473 544 28,000  Level Indianapolis Center
07:00AM 40.2869 -81.9653 352° North 476 548 28,000  Level Indianapolis Center
07:01AM 40.4186 -81.9894 352° North 475 547 28,000  Level Indianapolis Center
07:02AM 40.5497 -82.0131 352° North 473 544 28,000  Level Indianapolis Center
07:04AM 40.6792 -82.0375 352° North 466 536 28,000  Level Indianapolis Center
07:05AM 40.8100 -82.0603 352° North 470 541 28,000 -60 Level Indianapolis Center
07:06AM 40.9403 -82.0839 352° North 467 537 27,900 -720 Descending Indianapolis Center
07:07AM 41.0528 -82.1567 334° Northwest 447 514 26,600 -1,560 Descending Indianapolis Center
07:08AM 41.1564 -82.2506 326° Northwest 446 513 24,800 -1,620 Descending Indianapolis Center
07:09AM 41.2561 -82.3436 325° Northwest 436 502 23,400 -2,160 Descending Indianapolis Center
07:10AM 41.3653 -82.4478 324° Northwest 416 479 20,400 -2,640 Descending Cleveland Center
07:11AM 41.4494 -82.5250 325° Northwest 386 444 18,000 -2,460 Descending Cleveland Center
07:12AM 41.5314 -82.5997 326° Northwest 370 426 15,500 -2,520 Descending Cleveland Center
07:12AM 41.6075 -82.6686 326° Northwest 368 423 13,400 -1,800 Descending Cleveland Center
07:14AM 41.6872 -82.7492 323° Northwest 365 420 12,000 -660 Descending Cleveland Center
07:15AM 41.7650 -82.8297 322° Northwest 354 407 12,000  Level Cleveland Center
07:15AM 41.8300 -82.9072 318° Northwest 351 404 12,000  Level Cleveland Center
07:17AM 41.9133 -83.0081 318° Northwest 352 405 12,000  Level Cleveland Center
07:18AM 41.9867 -83.0944 319° Northwest 348 400 12,000  Level Cleveland Center
07:19AM 42.0597 -83.1814 319° Northwest 343 395 12,000  Level Cleveland Center
07:20AM 42.1167 -83.2425 321° Northwest 250 288 12,000 -840 Level Cleveland Center
07:21AM 42.1842 -83.2089 20° North 248 285 10,300 -1,560 Descending Cleveland Center
07:22AM 42.2625 -83.1589 25° Northeast 266 306 8,900 -1,560 Descending Cleveland Center
07:23AM 42.3281 -83.1194 24° Northeast 259 298 7,200 -1,860 Descending Cleveland Center
07:24AM 42.3625 -83.1628 317° Northwest 202 232 5,400 -1,740 Descending Cleveland Center
07:25AM 42.3400 -83.2294 245° Southwest 158 182 3,700 -1,320 Descending Cleveland Center
07:26AM 42.3078 -83.2703 223° Southwest 161 185 2,700 -840 Descending Cleveland Center
07:27AM 42.2761 -83.2969 212° Southwest 132 152 2,000 -780 Descending Cleveland Center
07:28AM 42.2464 -83.3181 208° Southwest 127 146 1,300 -780 Descending Cleveland Center